sensor_id;sensor_type;location;lat;lon;timestamp;P1;durP1;ratioP1;P2;durP2;ratioP2
28335;SDS011;15592;53.656;7.276;2023-04-24T00:01:27;8.20;;;7.38;;
28335;SDS011;15592;53.656;7.276;2023-04-24T00:03:54;10.05;;;6.90;;
28335;SDS011;15592;53.656;7.276;2023-04-24T00:06:24;8.18;;;7.30;;
28335;SDS011;15592;53.656;7.276;2023-04-24T00:08:58;8.80;;;7.70;;
28335;SDS011;15592;53.656;7.276;2023-04-24T00:13:54;9.32;;;7.15;;
28335;SDS011;15592;53.656;7.276;2023-04-24T00:16:19;8.63;;;7.13;;
28335;SDS011;15592;53.656;7.276;2023-04-24T00:18:45;7.70;;;6.43;;
28335;SDS011;15592;53.656;7.276;2023-04-24T00:21:12;7.72;;;6.70;;
28335;SDS011;15592;53.656;7.276;2023-04-24T00:23:38;8.15;;;6.40;;
28335;SDS011;15592;53.656;7.276;2023-04-24T00:26:04;7.10;;;6.38;;
28335;SDS011;15592;53.656;7.276;2023-04-24T00:28:30;8.30;;;6.47;;
28335;SDS011;15592;53.656;7.276;2023-04-24T00:30:55;6.68;;;5.97;;
28335;SDS011;15592;53.656;7.276;2023-04-24T00:33:21;8.18;;;6.53;;
28335;SDS011;15592;53.656;7.276;2023-04-24T00:35:46;6.85;;;6.10;;
28335;SDS011;15592;53.656;7.276;2023-04-24T00:38:12;7.70;;;6.00;;
28335;SDS011;15592;53.656;7.276;2023-04-24T00:40:37;7.30;;;6.00;;
28335;SDS011;15592;53.656;7.276;2023-04-24T00:43:03;6.68;;;5.72;;
28335;SDS011;15592;53.656;7.276;2023-04-24T00:45:29;8.02;;;6.40;;
28335;SDS011;15592;53.656;7.276;2023-04-24T00:47:56;7.80;;;6.93;;
28335;SDS011;15592;53.656;7.276;2023-04-24T00:50:23;7.72;;;6.93;;
28335;SDS011;15592;53.656;7.276;2023-04-24T00:52:50;10.77;;;8.48;;
28335;SDS011;15592;53.656;7.276;2023-04-24T00:55:16;10.70;;;9.25;;
28335;SDS011;15592;53.656;7.276;2023-04-24T00:57:42;11.63;;;9.90;;
28335;SDS011;15592;53.656;7.276;2023-04-24T01:00:09;11.77;;;9.50;;
28335;SDS011;15592;53.656;7.276;2023-04-24T01:02:36;10.82;;;8.60;;
28335;SDS011;15592;53.656;7.276;2023-04-24T01:05:05;11.83;;;9.93;;
28335;SDS011;15592;53.656;7.276;2023-04-24T01:07:32;10.98;;;9.70;;
28335;SDS011;15592;53.656;7.276;2023-04-24T01:09:59;13.52;;;9.50;;
28335;SDS011;15592;53.656;7.276;2023-04-24T01:12:25;13.13;;;9.75;;
28335;SDS011;15592;53.656;7.276;2023-04-24T01:14:50;11.77;;;9.57;;
28335;SDS011;15592;53.656;7.276;2023-04-24T01:17:16;10.70;;;9.13;;
28335;SDS011;15592;53.656;7.276;2023-04-24T01:19:41;12.15;;;8.98;;
28335;SDS011;15592;53.656;7.276;2023-04-24T01:22:13;8.80;;;7.68;;
28335;SDS011;15592;53.656;7.276;2023-04-24T01:24:40;8.75;;;6.88;;
28335;SDS011;15592;53.656;7.276;2023-04-24T01:27:07;7.57;;;6.00;;
28335;SDS011;15592;53.656;7.276;2023-04-24T01:29:34;6.88;;;4.45;;
28335;SDS011;15592;53.656;7.276;2023-04-24T01:32:01;4.32;;;3.88;;
28335;SDS011;15592;53.656;7.276;2023-04-24T01:34:27;4.43;;;2.88;;
28335;SDS011;15592;53.656;7.276;2023-04-24T01:36:53;5.28;;;2.95;;
28335;SDS011;15592;53.656;7.276;2023-04-24T01:39:19;3.67;;;3.03;;
28335;SDS011;15592;53.656;7.276;2023-04-24T01:41:45;3.50;;;2.20;;
28335;SDS011;15592;53.656;7.276;2023-04-24T01:44:11;3.22;;;2.22;;
28335;SDS011;15592;53.656;7.276;2023-04-24T01:46:37;6.93;;;2.20;;
28335;SDS011;15592;53.656;7.276;2023-04-24T01:49:03;3.35;;;2.20;;
28335;SDS011;15592;53.656;7.276;2023-04-24T01:51:29;2.90;;;2.33;;
28335;SDS011;15592;53.656;7.276;2023-04-24T01:53:55;4.90;;;2.40;;
28335;SDS011;15592;53.656;7.276;2023-04-24T01:56:21;2.80;;;2.38;;
28335;SDS011;15592;53.656;7.276;2023-04-24T01:58:48;2.78;;;2.58;;
28335;SDS011;15592;53.656;7.276;2023-04-24T02:01:18;2.92;;;2.50;;
28335;SDS011;15592;53.656;7.276;2023-04-24T02:03:45;2.58;;;2.38;;
28335;SDS011;15592;53.656;7.276;2023-04-24T02:06:10;2.95;;;2.72;;
28335;SDS011;15592;53.656;7.276;2023-04-24T02:08:36;3.97;;;2.47;;
28335;SDS011;15592;53.656;7.276;2023-04-24T02:11:02;3.08;;;2.80;;
28335;SDS011;15592;53.656;7.276;2023-04-24T02:13:27;3.35;;;2.35;;
28335;SDS011;15592;53.656;7.276;2023-04-24T02:15:53;6.47;;;3.08;;
28335;SDS011;15592;53.656;7.276;2023-04-24T02:18:19;3.00;;;2.80;;
28335;SDS011;15592;53.656;7.276;2023-04-24T02:20:44;4.90;;;3.20;;
28335;SDS011;15592;53.656;7.276;2023-04-24T02:23:10;3.50;;;3.20;;
28335;SDS011;15592;53.656;7.276;2023-04-24T02:25:36;6.68;;;3.65;;
28335;SDS011;15592;53.656;7.276;2023-04-24T02:28:02;4.63;;;3.78;;
28335;SDS011;15592;53.656;7.276;2023-04-24T02:30:27;3.63;;;3.30;;
28335;SDS011;15592;53.656;7.276;2023-04-24T02:32:53;4.25;;;3.60;;
28335;SDS011;15592;53.656;7.276;2023-04-24T02:35:19;3.70;;;3.28;;
28335;SDS011;15592;53.656;7.276;2023-04-24T02:37:45;4.05;;;3.70;;
28335;SDS011;15592;53.656;7.276;2023-04-24T02:40:10;4.57;;;3.58;;
28335;SDS011;15592;53.656;7.276;2023-04-24T02:42:36;4.43;;;3.78;;
28335;SDS011;15592;53.656;7.276;2023-04-24T02:45:02;4.97;;;3.78;;
28335;SDS011;15592;53.656;7.276;2023-04-24T02:47:28;5.20;;;4.32;;
28335;SDS011;15592;53.656;7.276;2023-04-24T02:49:53;4.90;;;4.07;;
28335;SDS011;15592;53.656;7.276;2023-04-24T02:52:19;5.25;;;4.43;;
28335;SDS011;15592;53.656;7.276;2023-04-24T02:54:44;5.18;;;4.00;;
28335;SDS011;15592;53.656;7.276;2023-04-24T02:57:10;5.43;;;3.92;;
28335;SDS011;15592;53.656;7.276;2023-04-24T02:59:35;5.47;;;3.78;;
28335;SDS011;15592;53.656;7.276;2023-04-24T03:02:01;4.43;;;4.03;;
28335;SDS011;15592;53.656;7.276;2023-04-24T03:04:27;4.10;;;3.70;;
28335;SDS011;15592;53.656;7.276;2023-04-24T03:06:52;4.35;;;3.67;;
28335;SDS011;15592;53.656;7.276;2023-04-24T03:09:19;4.57;;;3.80;;
28335;SDS011;15592;53.656;7.276;2023-04-24T03:11:45;4.38;;;3.97;;
28335;SDS011;15592;53.656;7.276;2023-04-24T03:14:11;5.18;;;4.68;;
28335;SDS011;15592;53.656;7.276;2023-04-24T03:16:37;5.25;;;4.70;;
28335;SDS011;15592;53.656;7.276;2023-04-24T03:19:02;9.05;;;5.45;;
28335;SDS011;15592;53.656;7.276;2023-04-24T03:21:28;7.50;;;5.68;;
28335;SDS011;15592;53.656;7.276;2023-04-24T03:23:54;8.02;;;6.00;;
28335;SDS011;15592;53.656;7.276;2023-04-24T03:26:19;6.90;;;5.80;;
28335;SDS011;15592;53.656;7.276;2023-04-24T03:28:45;8.95;;;6.35;;
28335;SDS011;15592;53.656;7.276;2023-04-24T03:31:11;9.00;;;5.88;;
28335;SDS011;15592;53.656;7.276;2023-04-24T03:33:36;9.75;;;7.30;;
28335;SDS011;15592;53.656;7.276;2023-04-24T03:36:02;10.75;;;7.68;;
28335;SDS011;15592;53.656;7.276;2023-04-24T03:38:28;9.75;;;7.40;;
28335;SDS011;15592;53.656;7.276;2023-04-24T03:40:53;10.65;;;7.65;;
28335;SDS011;15592;53.656;7.276;2023-04-24T03:43:19;11.70;;;8.48;;
28335;SDS011;15592;53.656;7.276;2023-04-24T03:45:45;10.80;;;8.20;;
28335;SDS011;15592;53.656;7.276;2023-04-24T03:48:10;12.13;;;8.55;;
28335;SDS011;15592;53.656;7.276;2023-04-24T03:50:36;14.10;;;9.63;;
28335;SDS011;15592;53.656;7.276;2023-04-24T03:53:01;12.23;;;9.15;;
28335;SDS011;15592;53.656;7.276;2023-04-24T03:55:27;11.50;;;8.65;;
28335;SDS011;15592;53.656;7.276;2023-04-24T03:57:53;13.00;;;9.75;;
28335;SDS011;15592;53.656;7.276;2023-04-24T04:00:18;12.23;;;9.52;;
28335;SDS011;15592;53.656;7.276;2023-04-24T04:02:44;13.90;;;10.05;;
28335;SDS011;15592;53.656;7.276;2023-04-24T04:05:10;11.80;;;9.32;;
28335;SDS011;15592;53.656;7.276;2023-04-24T04:07:35;13.82;;;9.88;;
28335;SDS011;15592;53.656;7.276;2023-04-24T04:10:01;13.88;;;9.98;;
28335;SDS011;15592;53.656;7.276;2023-04-24T04:12:27;11.80;;;9.50;;
28335;SDS011;15592;53.656;7.276;2023-04-24T04:14:52;12.45;;;9.98;;
28335;SDS011;15592;53.656;7.276;2023-04-24T04:17:18;14.07;;;10.85;;
28335;SDS011;15592;53.656;7.276;2023-04-24T04:19:43;14.15;;;10.93;;
28335;SDS011;15592;53.656;7.276;2023-04-24T04:22:09;13.63;;;10.80;;
28335;SDS011;15592;53.656;7.276;2023-04-24T04:24:35;14.07;;;11.20;;
28335;SDS011;15592;53.656;7.276;2023-04-24T04:27:03;13.82;;;9.88;;
28335;SDS011;15592;53.656;7.276;2023-04-24T04:29:30;14.00;;;10.45;;
28335;SDS011;15592;53.656;7.276;2023-04-24T04:31:56;14.70;;;10.77;;
28335;SDS011;15592;53.656;7.276;2023-04-24T04:34:22;16.27;;;11.52;;
28335;SDS011;15592;53.656;7.276;2023-04-24T04:36:48;14.27;;;11.15;;
28335;SDS011;15592;53.656;7.276;2023-04-24T04:39:13;15.80;;;11.98;;
28335;SDS011;15592;53.656;7.276;2023-04-24T04:41:40;17.50;;;13.23;;
28335;SDS011;15592;53.656;7.276;2023-04-24T04:44:06;17.67;;;13.88;;
28335;SDS011;15592;53.656;7.276;2023-04-24T04:46:33;18.80;;;13.23;;
28335;SDS011;15592;53.656;7.276;2023-04-24T04:49:01;17.52;;;13.40;;
28335;SDS011;15592;53.656;7.276;2023-04-24T04:51:27;17.98;;;13.77;;
28335;SDS011;15592;53.656;7.276;2023-04-24T04:53:53;20.27;;;15.13;;
28335;SDS011;15592;53.656;7.276;2023-04-24T04:56:18;17.10;;;13.25;;
28335;SDS011;15592;53.656;7.276;2023-04-24T04:58:44;20.35;;;13.75;;
28335;SDS011;15592;53.656;7.276;2023-04-24T05:01:10;18.27;;;13.70;;
28335;SDS011;15592;53.656;7.276;2023-04-24T05:03:35;18.90;;;14.43;;
28335;SDS011;15592;53.656;7.276;2023-04-24T05:06:01;19.52;;;14.10;;
28335;SDS011;15592;53.656;7.276;2023-04-24T05:08:27;19.27;;;14.70;;
28335;SDS011;15592;53.656;7.276;2023-04-24T05:10:53;20.88;;;15.07;;
28335;SDS011;15592;53.656;7.276;2023-04-24T05:13:20;20.98;;;14.98;;
28335;SDS011;15592;53.656;7.276;2023-04-24T05:15:46;20.38;;;14.25;;
28335;SDS011;15592;53.656;7.276;2023-04-24T05:18:11;20.65;;;14.32;;
28335;SDS011;15592;53.656;7.276;2023-04-24T05:20:37;19.67;;;14.02;;
28335;SDS011;15592;53.656;7.276;2023-04-24T05:23:03;18.80;;;13.32;;
28335;SDS011;15592;53.656;7.276;2023-04-24T05:25:28;19.70;;;14.15;;
28335;SDS011;15592;53.656;7.276;2023-04-24T05:27:57;21.80;;;14.90;;
28335;SDS011;15592;53.656;7.276;2023-04-24T05:30:22;19.35;;;14.60;;
28335;SDS011;15592;53.656;7.276;2023-04-24T05:32:48;23.42;;;14.57;;
28335;SDS011;15592;53.656;7.276;2023-04-24T05:35:13;22.00;;;14.75;;
28335;SDS011;15592;53.656;7.276;2023-04-24T05:37:39;22.08;;;14.52;;
28335;SDS011;15592;53.656;7.276;2023-04-24T05:40:05;23.73;;;18.15;;
28335;SDS011;15592;53.656;7.276;2023-04-24T05:42:31;28.55;;;21.60;;
28335;SDS011;15592;53.656;7.276;2023-04-24T05:44:57;28.70;;;20.58;;
28335;SDS011;15592;53.656;7.276;2023-04-24T05:47:22;27.55;;;21.30;;
28335;SDS011;15592;53.656;7.276;2023-04-24T05:49:48;31.67;;;21.42;;
28335;SDS011;15592;53.656;7.276;2023-04-24T05:52:14;24.80;;;19.65;;
28335;SDS011;15592;53.656;7.276;2023-04-24T05:54:39;25.27;;;19.63;;
28335;SDS011;15592;53.656;7.276;2023-04-24T05:57:05;24.60;;;19.50;;
28335;SDS011;15592;53.656;7.276;2023-04-24T05:59:38;22.73;;;18.55;;
28335;SDS011;15592;53.656;7.276;2023-04-24T06:02:04;20.92;;;17.13;;
28335;SDS011;15592;53.656;7.276;2023-04-24T06:04:30;21.15;;;17.08;;
28335;SDS011;15592;53.656;7.276;2023-04-24T06:06:56;19.90;;;16.08;;
28335;SDS011;15592;53.656;7.276;2023-04-24T06:09:22;23.90;;;16.85;;
28335;SDS011;15592;53.656;7.276;2023-04-24T06:11:48;23.33;;;16.90;;
28335;SDS011;15592;53.656;7.276;2023-04-24T06:14:15;20.30;;;16.27;;
28335;SDS011;15592;53.656;7.276;2023-04-24T06:16:41;23.00;;;17.13;;
28335;SDS011;15592;53.656;7.276;2023-04-24T06:19:07;19.88;;;15.57;;
28335;SDS011;15592;53.656;7.276;2023-04-24T06:21:33;21.35;;;17.05;;
28335;SDS011;15592;53.656;7.276;2023-04-24T06:23:59;19.23;;;15.50;;
28335;SDS011;15592;53.656;7.276;2023-04-24T06:26:24;22.50;;;16.60;;
28335;SDS011;15592;53.656;7.276;2023-04-24T06:28:51;21.08;;;15.20;;
28335;SDS011;15592;53.656;7.276;2023-04-24T06:31:18;19.50;;;15.38;;
28335;SDS011;15592;53.656;7.276;2023-04-24T06:33:44;21.42;;;15.30;;
28335;SDS011;15592;53.656;7.276;2023-04-24T06:36:11;19.30;;;14.25;;
28335;SDS011;15592;53.656;7.276;2023-04-24T06:38:37;19.10;;;14.77;;
28335;SDS011;15592;53.656;7.276;2023-04-24T06:41:03;18.85;;;15.02;;
28335;SDS011;15592;53.656;7.276;2023-04-24T06:43:30;21.05;;;16.08;;
28335;SDS011;15592;53.656;7.276;2023-04-24T06:45:56;20.77;;;14.77;;
28335;SDS011;15592;53.656;7.276;2023-04-24T06:48:23;19.05;;;14.35;;
28335;SDS011;15592;53.656;7.276;2023-04-24T06:50:49;19.33;;;14.45;;
28335;SDS011;15592;53.656;7.276;2023-04-24T06:53:14;18.85;;;14.00;;
28335;SDS011;15592;53.656;7.276;2023-04-24T06:55:40;18.10;;;14.23;;
28335;SDS011;15592;53.656;7.276;2023-04-24T06:58:06;16.92;;;12.43;;
28335;SDS011;15592;53.656;7.276;2023-04-24T07:00:32;14.05;;;10.93;;
28335;SDS011;15592;53.656;7.276;2023-04-24T07:02:58;13.60;;;10.57;;
28335;SDS011;15592;53.656;7.276;2023-04-24T07:05:24;11.90;;;8.95;;
28335;SDS011;15592;53.656;7.276;2023-04-24T07:07:49;9.60;;;7.75;;
28335;SDS011;15592;53.656;7.276;2023-04-24T07:10:16;7.88;;;6.90;;
28335;SDS011;15592;53.656;7.276;2023-04-24T07:12:41;8.00;;;6.30;;
28335;SDS011;15592;53.656;7.276;2023-04-24T07:15:07;7.03;;;5.55;;
28335;SDS011;15592;53.656;7.276;2023-04-24T07:17:34;5.82;;;4.97;;
28335;SDS011;15592;53.656;7.276;2023-04-24T07:20:00;4.68;;;4.10;;
28335;SDS011;15592;53.656;7.276;2023-04-24T07:22:25;4.32;;;3.35;;
28335;SDS011;15592;53.656;7.276;2023-04-24T07:24:51;3.72;;;3.08;;
28335;SDS011;15592;53.656;7.276;2023-04-24T07:27:17;4.15;;;2.83;;
28335;SDS011;15592;53.656;7.276;2023-04-24T07:29:42;5.53;;;3.65;;
28335;SDS011;15592;53.656;7.276;2023-04-24T07:32:08;5.90;;;4.55;;
28335;SDS011;15592;53.656;7.276;2023-04-24T07:34:34;7.72;;;3.92;;
28335;SDS011;15592;53.656;7.276;2023-04-24T07:37:00;8.60;;;5.93;;
28335;SDS011;15592;53.656;7.276;2023-04-24T07:39:25;8.23;;;5.65;;
28335;SDS011;15592;53.656;7.276;2023-04-24T07:41:51;9.35;;;6.00;;
28335;SDS011;15592;53.656;7.276;2023-04-24T07:44:17;7.55;;;5.05;;
28335;SDS011;15592;53.656;7.276;2023-04-24T07:46:42;8.18;;;5.45;;
28335;SDS011;15592;53.656;7.276;2023-04-24T07:49:08;6.50;;;4.95;;
28335;SDS011;15592;53.656;7.276;2023-04-24T07:51:34;9.50;;;6.82;;
28335;SDS011;15592;53.656;7.276;2023-04-24T07:54:03;7.20;;;5.50;;
28335;SDS011;15592;53.656;7.276;2023-04-24T07:56:31;7.00;;;4.13;;
28335;SDS011;15592;53.656;7.276;2023-04-24T07:58:57;5.35;;;4.35;;
28335;SDS011;15592;53.656;7.276;2023-04-24T08:01:22;8.23;;;4.22;;
28335;SDS011;15592;53.656;7.276;2023-04-24T08:03:48;6.35;;;4.25;;
28335;SDS011;15592;53.656;7.276;2023-04-24T08:06:13;6.70;;;3.90;;
28335;SDS011;15592;53.656;7.276;2023-04-24T08:08:39;4.78;;;3.70;;
28335;SDS011;15592;53.656;7.276;2023-04-24T08:11:05;4.85;;;3.45;;
28335;SDS011;15592;53.656;7.276;2023-04-24T08:13:30;5.25;;;3.40;;
28335;SDS011;15592;53.656;7.276;2023-04-24T08:15:56;4.25;;;3.45;;
28335;SDS011;15592;53.656;7.276;2023-04-24T08:18:22;5.25;;;2.90;;
28335;SDS011;15592;53.656;7.276;2023-04-24T08:20:48;3.88;;;2.85;;
28335;SDS011;15592;53.656;7.276;2023-04-24T08:23:13;5.88;;;3.28;;
28335;SDS011;15592;53.656;7.276;2023-04-24T08:25:39;4.22;;;2.70;;
28335;SDS011;15592;53.656;7.276;2023-04-24T08:28:06;8.70;;;2.50;;
28335;SDS011;15592;53.656;7.276;2023-04-24T08:30:33;5.45;;;2.30;;
28335;SDS011;15592;53.656;7.276;2023-04-24T08:32:59;3.42;;;2.05;;
28335;SDS011;15592;53.656;7.276;2023-04-24T08:35:25;6.13;;;2.38;;
28335;SDS011;15592;53.656;7.276;2023-04-24T08:37:51;7.13;;;2.40;;
28335;SDS011;15592;53.656;7.276;2023-04-24T08:40:18;6.20;;;2.08;;
28335;SDS011;15592;53.656;7.276;2023-04-24T08:42:51;8.85;;;2.17;;
28335;SDS011;15592;53.656;7.276;2023-04-24T08:45:20;5.07;;;1.67;;
28335;SDS011;15592;53.656;7.276;2023-04-24T08:47:46;4.97;;;1.60;;
28335;SDS011;15592;53.656;7.276;2023-04-24T08:50:12;4.45;;;1.63;;
28335;SDS011;15592;53.656;7.276;2023-04-24T08:52:38;6.82;;;2.30;;
28335;SDS011;15592;53.656;7.276;2023-04-24T08:55:04;4.75;;;1.80;;
28335;SDS011;15592;53.656;7.276;2023-04-24T08:57:30;7.15;;;2.45;;
28335;SDS011;15592;53.656;7.276;2023-04-24T08:59:57;6.05;;;2.45;;
28335;SDS011;15592;53.656;7.276;2023-04-24T09:02:23;5.80;;;2.20;;
28335;SDS011;15592;53.656;7.276;2023-04-24T09:04:50;9.00;;;2.58;;
28335;SDS011;15592;53.656;7.276;2023-04-24T09:07:17;3.47;;;2.20;;
28335;SDS011;15592;53.656;7.276;2023-04-24T09:09:44;5.63;;;2.65;;
28335;SDS011;15592;53.656;7.276;2023-04-24T09:12:10;8.23;;;2.83;;
28335;SDS011;15592;53.656;7.276;2023-04-24T09:14:36;7.05;;;3.05;;
28335;SDS011;15592;53.656;7.276;2023-04-24T09:17:09;8.65;;;4.10;;
28335;SDS011;15592;53.656;7.276;2023-04-24T09:19:35;9.50;;;4.35;;
28335;SDS011;15592;53.656;7.276;2023-04-24T09:22:04;7.75;;;4.97;;
28335;SDS011;15592;53.656;7.276;2023-04-24T09:24:31;12.27;;;6.15;;
28335;SDS011;15592;53.656;7.276;2023-04-24T09:26:57;10.27;;;6.40;;
28335;SDS011;15592;53.656;7.276;2023-04-24T09:29:24;16.95;;;9.73;;
28335;SDS011;15592;53.656;7.276;2023-04-24T09:31:50;22.10;;;10.85;;
28335;SDS011;15592;53.656;7.276;2023-04-24T09:34:18;18.67;;;10.48;;
28335;SDS011;15592;53.656;7.276;2023-04-24T09:36:55;18.47;;;11.27;;
28335;SDS011;15592;53.656;7.276;2023-04-24T09:39:20;18.80;;;10.45;;
28335;SDS011;15592;53.656;7.276;2023-04-24T09:41:50;20.65;;;11.02;;
28335;SDS011;15592;53.656;7.276;2023-04-24T09:44:17;26.13;;;14.05;;
28335;SDS011;15592;53.656;7.276;2023-04-24T09:46:50;26.88;;;15.20;;
28335;SDS011;15592;53.656;7.276;2023-04-24T09:52:14;23.70;;;13.23;;
28335;SDS011;15592;53.656;7.276;2023-04-24T09:54:40;20.92;;;12.25;;
28335;SDS011;15592;53.656;7.276;2023-04-24T09:57:07;26.00;;;14.05;;
28335;SDS011;15592;53.656;7.276;2023-04-24T09:59:34;24.77;;;14.18;;
28335;SDS011;15592;53.656;7.276;2023-04-24T10:02:00;28.40;;;16.88;;
28335;SDS011;15592;53.656;7.276;2023-04-24T10:04:26;32.58;;;17.83;;
28335;SDS011;15592;53.656;7.276;2023-04-24T10:06:53;30.45;;;17.95;;
28335;SDS011;15592;53.656;7.276;2023-04-24T10:09:23;30.10;;;17.85;;
28335;SDS011;15592;53.656;7.276;2023-04-24T10:11:50;29.63;;;16.83;;
28335;SDS011;15592;53.656;7.276;2023-04-24T10:14:19;26.08;;;16.15;;
28335;SDS011;15592;53.656;7.276;2023-04-24T10:16:46;25.52;;;15.48;;
28335;SDS011;15592;53.656;7.276;2023-04-24T10:19:13;30.63;;;17.17;;
28335;SDS011;15592;53.656;7.276;2023-04-24T10:21:40;30.13;;;16.60;;
28335;SDS011;15592;53.656;7.276;2023-04-24T10:24:08;21.83;;;14.25;;
28335;SDS011;15592;53.656;7.276;2023-04-24T10:26:35;25.85;;;15.30;;
28335;SDS011;15592;53.656;7.276;2023-04-24T10:29:01;21.40;;;13.82;;
28335;SDS011;15592;53.656;7.276;2023-04-24T10:31:27;25.30;;;13.90;;
28335;SDS011;15592;53.656;7.276;2023-04-24T10:33:57;24.90;;;14.60;;
28335;SDS011;15592;53.656;7.276;2023-04-24T10:36:25;22.85;;;13.38;;
28335;SDS011;15592;53.656;7.276;2023-04-24T10:38:53;18.40;;;11.88;;
28335;SDS011;15592;53.656;7.276;2023-04-24T10:41:21;23.60;;;11.93;;
28335;SDS011;15592;53.656;7.276;2023-04-24T10:46:31;20.05;;;10.48;;
28335;SDS011;15592;53.656;7.276;2023-04-24T10:48:57;18.95;;;10.23;;
28335;SDS011;15592;53.656;7.276;2023-04-24T10:51:23;17.67;;;9.15;;
28335;SDS011;15592;53.656;7.276;2023-04-24T10:54:21;13.70;;;9.02;;
28335;SDS011;15592;53.656;7.276;2023-04-24T10:56:48;14.25;;;8.32;;
28335;SDS011;15592;53.656;7.276;2023-04-24T10:59:23;15.55;;;8.50;;
28335;SDS011;15592;53.656;7.276;2023-04-24T11:01:53;17.48;;;9.80;;
28335;SDS011;15592;53.656;7.276;2023-04-24T11:04:32;16.20;;;9.70;;
28335;SDS011;15592;53.656;7.276;2023-04-24T11:06:58;17.55;;;9.73;;
28335;SDS011;15592;53.656;7.276;2023-04-24T11:09:27;12.68;;;8.38;;
28335;SDS011;15592;53.656;7.276;2023-04-24T11:12:08;13.25;;;8.25;;
28335;SDS011;15592;53.656;7.276;2023-04-24T11:17:30;14.00;;;8.32;;
28335;SDS011;15592;53.656;7.276;2023-04-24T11:20:03;14.77;;;8.68;;
28335;SDS011;15592;53.656;7.276;2023-04-24T11:22:32;13.75;;;7.65;;
28335;SDS011;15592;53.656;7.276;2023-04-24T11:25:00;13.57;;;8.23;;
28335;SDS011;15592;53.656;7.276;2023-04-24T11:27:29;11.13;;;7.85;;
28335;SDS011;15592;53.656;7.276;2023-04-24T11:35:06;12.88;;;8.20;;
28335;SDS011;15592;53.656;7.276;2023-04-24T11:37:53;15.48;;;7.68;;
28335;SDS011;15592;53.656;7.276;2023-04-24T11:40:21;13.52;;;7.43;;
28335;SDS011;15592;53.656;7.276;2023-04-24T11:42:53;10.02;;;6.20;;
28335;SDS011;15592;53.656;7.276;2023-04-24T11:45:25;12.35;;;6.30;;
28335;SDS011;15592;53.656;7.276;2023-04-24T11:47:52;17.75;;;5.95;;
28335;SDS011;15592;53.656;7.276;2023-04-24T11:50:19;13.20;;;5.85;;
28335;SDS011;15592;53.656;7.276;2023-04-24T11:52:47;12.52;;;6.40;;
28335;SDS011;15592;53.656;7.276;2023-04-24T11:57:42;12.30;;;6.10;;
28335;SDS011;15592;53.656;7.276;2023-04-24T12:00:16;10.10;;;5.13;;
28335;SDS011;15592;53.656;7.276;2023-04-24T12:02:42;9.93;;;5.82;;
28335;SDS011;15592;53.656;7.276;2023-04-24T12:05:07;11.35;;;5.88;;
28335;SDS011;15592;53.656;7.276;2023-04-24T12:07:40;16.73;;;5.90;;
28335;SDS011;15592;53.656;7.276;2023-04-24T12:10:09;13.35;;;5.60;;
28335;SDS011;15592;53.656;7.276;2023-04-24T12:12:35;15.00;;;5.97;;
28335;SDS011;15592;53.656;7.276;2023-04-24T12:15:01;12.30;;;4.75;;
28335;SDS011;15592;53.656;7.276;2023-04-24T12:17:31;13.48;;;5.05;;
28335;SDS011;15592;53.656;7.276;2023-04-24T12:19:59;9.55;;;4.10;;
28335;SDS011;15592;53.656;7.276;2023-04-24T12:22:26;7.88;;;4.18;;
28335;SDS011;15592;53.656;7.276;2023-04-24T12:25:04;10.48;;;4.13;;
28335;SDS011;15592;53.656;7.276;2023-04-24T12:27:31;12.70;;;4.65;;
28335;SDS011;15592;53.656;7.276;2023-04-24T12:29:58;8.80;;;4.10;;
28335;SDS011;15592;53.656;7.276;2023-04-24T12:32:25;10.45;;;4.07;;
28335;SDS011;15592;53.656;7.276;2023-04-24T12:34:54;13.10;;;4.55;;
28335;SDS011;15592;53.656;7.276;2023-04-24T12:37:22;13.53;;;4.50;;
28335;SDS011;15592;53.656;7.276;2023-04-24T12:40:08;10.00;;;4.43;;
28335;SDS011;15592;53.656;7.276;2023-04-24T12:42:35;12.00;;;5.00;;
28335;SDS011;15592;53.656;7.276;2023-04-24T12:45:06;8.35;;;4.03;;
28335;SDS011;15592;53.656;7.276;2023-04-24T12:47:33;7.45;;;4.43;;
28335;SDS011;15592;53.656;7.276;2023-04-24T12:49:59;7.00;;;4.25;;
28335;SDS011;15592;53.656;7.276;2023-04-24T12:52:26;8.50;;;3.88;;
28335;SDS011;15592;53.656;7.276;2023-04-24T12:54:54;9.95;;;4.68;;
28335;SDS011;15592;53.656;7.276;2023-04-24T12:57:21;6.90;;;3.70;;
28335;SDS011;15592;53.656;7.276;2023-04-24T12:59:48;9.95;;;4.35;;
28335;SDS011;15592;53.656;7.276;2023-04-24T13:02:13;8.18;;;4.20;;
28335;SDS011;15592;53.656;7.276;2023-04-24T13:04:42;12.75;;;4.07;;
28335;SDS011;15592;53.656;7.276;2023-04-24T13:07:09;8.18;;;3.42;;
28335;SDS011;15592;53.656;7.276;2023-04-24T13:09:35;10.10;;;3.90;;
28335;SDS011;15592;53.656;7.276;2023-04-24T13:12:01;6.55;;;3.20;;
28335;SDS011;15592;53.656;7.276;2023-04-24T13:14:27;6.50;;;3.42;;
28335;SDS011;15592;53.656;7.276;2023-04-24T13:16:52;11.00;;;4.10;;
28335;SDS011;15592;53.656;7.276;2023-04-24T13:19:18;6.35;;;3.50;;
28335;SDS011;15592;53.656;7.276;2023-04-24T13:21:44;7.55;;;3.28;;
28335;SDS011;15592;53.656;7.276;2023-04-24T13:24:09;7.32;;;3.20;;
28335;SDS011;15592;53.656;7.276;2023-04-24T13:26:35;5.80;;;2.97;;
28335;SDS011;15592;53.656;7.276;2023-04-24T13:29:00;5.10;;;2.22;;
28335;SDS011;15592;53.656;7.276;2023-04-24T13:31:26;7.38;;;2.75;;
28335;SDS011;15592;53.656;7.276;2023-04-24T13:33:52;7.07;;;2.78;;
28335;SDS011;15592;53.656;7.276;2023-04-24T13:36:17;5.63;;;2.60;;
28335;SDS011;15592;53.656;7.276;2023-04-24T13:38:46;5.80;;;2.35;;
28335;SDS011;15592;53.656;7.276;2023-04-24T13:41:11;4.75;;;2.05;;
28335;SDS011;15592;53.656;7.276;2023-04-24T13:43:37;6.57;;;2.38;;
28335;SDS011;15592;53.656;7.276;2023-04-24T13:46:03;4.80;;;2.35;;
28335;SDS011;15592;53.656;7.276;2023-04-24T13:48:29;3.70;;;1.77;;
28335;SDS011;15592;53.656;7.276;2023-04-24T13:50:55;4.47;;;2.22;;
28335;SDS011;15592;53.656;7.276;2023-04-24T13:53:20;4.90;;;2.03;;
28335;SDS011;15592;53.656;7.276;2023-04-24T13:55:46;5.93;;;2.17;;
28335;SDS011;15592;53.656;7.276;2023-04-24T13:58:12;5.78;;;1.63;;
28335;SDS011;15592;53.656;7.276;2023-04-24T14:00:38;2.08;;;1.23;;
28335;SDS011;15592;53.656;7.276;2023-04-24T14:03:04;6.53;;;1.80;;
28335;SDS011;15592;53.656;7.276;2023-04-24T14:05:29;3.38;;;1.25;;
28335;SDS011;15592;53.656;7.276;2023-04-24T14:07:55;4.13;;;1.20;;
28335;SDS011;15592;53.656;7.276;2023-04-24T14:10:20;2.03;;;1.23;;
28335;SDS011;15592;53.656;7.276;2023-04-24T14:12:46;3.90;;;1.10;;
28335;SDS011;15592;53.656;7.276;2023-04-24T14:15:12;2.15;;;1.05;;
28335;SDS011;15592;53.656;7.276;2023-04-24T14:17:38;3.15;;;1.27;;
28335;SDS011;15592;53.656;7.276;2023-04-24T14:20:04;5.40;;;1.20;;
28335;SDS011;15592;53.656;7.276;2023-04-24T14:22:30;5.03;;;1.63;;
28335;SDS011;15592;53.656;7.276;2023-04-24T14:24:56;3.50;;;1.05;;
28335;SDS011;15592;53.656;7.276;2023-04-24T14:27:22;3.33;;;1.10;;
28335;SDS011;15592;53.656;7.276;2023-04-24T14:29:49;3.65;;;1.40;;
28335;SDS011;15592;53.656;7.276;2023-04-24T14:32:14;4.13;;;1.17;;
28335;SDS011;15592;53.656;7.276;2023-04-24T14:34:40;3.85;;;1.20;;
28335;SDS011;15592;53.656;7.276;2023-04-24T14:37:06;4.93;;;1.50;;
28335;SDS011;15592;53.656;7.276;2023-04-24T14:39:32;6.80;;;1.60;;
28335;SDS011;15592;53.656;7.276;2023-04-24T14:41:58;7.60;;;1.70;;
28335;SDS011;15592;53.656;7.276;2023-04-24T14:44:23;6.80;;;1.85;;
28335;SDS011;15592;53.656;7.276;2023-04-24T14:46:49;8.65;;;1.83;;
28335;SDS011;15592;53.656;7.276;2023-04-24T14:49:16;7.22;;;1.67;;
28335;SDS011;15592;53.656;7.276;2023-04-24T14:51:42;5.88;;;1.38;;
28335;SDS011;15592;53.656;7.276;2023-04-24T14:54:08;3.67;;;1.17;;